Observation data for Floydada on 11/08/2019      Previous  Date       Current Mesonet Observations  Soil Data  Daily Summary Page  Observations in Plain Language
KFLS 080600Z 01005KT 01/M02 A3044 RMK A01 T00071018  RH  084%=      5-min Rain = 0
KFLS 080605Z 02005KT 01/M02 A3044 RMK A01 T00071018  RH  085%=      5-min Rain = 0
KFLS 080610Z 02005KT 01/M02 A3044 RMK A01 T00071019  RH  084%=      5-min Rain = 0
KFLS 080615Z 02005KT 01/M02 A3044 RMK A01 T00071019  RH  084%=      5-min Rain = 0
KFLS 080620Z 02005KT 01/M02 A3043 RMK A01 T00071019  RH  084%=      5-min Rain = 0
KFLS 080625Z 01005KT 01/M02 A3043 RMK A01 T00071018  RH  084%=      5-min Rain = 0
KFLS 080630Z 01004KT 01/M02 A3043 RMK A01 T00071017  RH  084%=      5-min Rain = 0
KFLS 080635Z 02004KT 01/M02 A3043 RMK A01 T00081018  RH  084%=      5-min Rain = 0
KFLS 080640Z 01004KT 01/M02 A3043 RMK A01 T00081017  RH  085%=      5-min Rain = 0
KFLS 080645Z 02004KT 01/M02 A3043 RMK A01 T00081017  RH  084%=      5-min Rain = 0
KFLS 080650Z 02004KT 01/M02 A3042 RMK A01 T00081019  RH  083%=      5-min Rain = 0
KFLS 080655Z 03004KT 01/M02 A3042 RMK A01 T00081019  RH  083%=      5-min Rain = 0
KFLS 080700Z 02004KT 01/M02 A3042 RMK A01 T00091015  RH  085%=      5-min Rain = 0
KFLS 080705Z 02003KT 01/M02 A3042 RMK A01 T00081016  RH  085%=      5-min Rain = 0
KFLS 080710Z 02003KT 01/M02 A3043 RMK A01 T00091016  RH  085%=      5-min Rain = 0
KFLS 080715Z 01002KT 01/M02 A3043 RMK A01 T00091015  RH  085%=      5-min Rain = 0
KFLS 080720Z 01003KT 01/M02 A3043 RMK A01 T00091017  RH  084%=      5-min Rain = 0
KFLS 080725Z 01003KT 01/M02 A3043 RMK A01 T00091021  RH  082%=      5-min Rain = 0
KFLS 080730Z 01003KT 01/M02 A3043 RMK A01 T00091018  RH  083%=      5-min Rain = 0
KFLS 080735Z 01003KT 01/M02 A3043 RMK A01 T00091018  RH  083%=      5-min Rain = 0
KFLS 080740Z 02003KT 01/M02 A3042 RMK A01 T00091019  RH  082%=      5-min Rain = 0
KFLS 080745Z 01003KT 01/M02 A3042 RMK A01 T00091020  RH  082%=      5-min Rain = 0
KFLS 080750Z 34002KT 01/M02 A3043 RMK A01 T00101019  RH  082%=      5-min Rain = 0
KFLS 080755Z 35003KT 01/M02 A3043 RMK A01 T00101019  RH  082%=      5-min Rain = 0
KFLS 080800Z 35002KT 01/M02 A3043 RMK A01 T00101020  RH  082%=      5-min Rain = 0
KFLS 080805Z 34002KT 01/M02 A3043 RMK A01 T00101019  RH  082%=      5-min Rain = 0
KFLS 080810Z 35002KT 01/M02 A3042 RMK A01 T00101020  RH  081%=      5-min Rain = 0
KFLS 080815Z 00003KT 01/M02 A3042 RMK A01 T00101019  RH  082%=      5-min Rain = 0
KFLS 080820Z 00003KT 01/M02 A3042 RMK A01 T00101023  RH  080%=      5-min Rain = 0
KFLS 080825Z 01002KT 01/M02 A3042 RMK A01 T00101021  RH  081%=      5-min Rain = 0
KFLS 080830Z 36003KT 01/M02 A3042 RMK A01 T00101023  RH  080%=      5-min Rain = 0
KFLS 080835Z 36003KT 01/M02 A3042 RMK A01 T00101023  RH  080%=      5-min Rain = 0
KFLS 080840Z 00003KT 01/M02 A3042 RMK A01 T00101023  RH  080%=      5-min Rain = 0
KFLS 080845Z 01003KT 01/M03 A3042 RMK A01 T00101025  RH  078%=      5-min Rain = 0
KFLS 080850Z 36003KT 01/M02 A3041 RMK A01 T00101023  RH  079%=      5-min Rain = 0
KFLS 080855Z 00003KT 01/M03 A3041 RMK A01 T00101025  RH  079%=      5-min Rain = 0
KFLS 080900Z 36003KT 01/M02 A3041 RMK A01 T00111023  RH  079%=      5-min Rain = 0
KFLS 080905Z 00003KT 01/M02 A3041 RMK A01 T00111021  RH  080%=      5-min Rain = 0
KFLS 080910Z 01002KT 01/M03 A3041 RMK A01 T00101025  RH  078%=      5-min Rain = 0
KFLS 080915Z 31002KT 01/M02 A3041 RMK A01 T00111022  RH  079%=      5-min Rain = 0
KFLS 080920Z 31001KT 01/M02 A304 RMK A01 T00111020  RH  081%=      5-min Rain = 0
KFLS 080925Z 33001KT 01/M02 A304 RMK A01 T00111017  RH  082%=      5-min Rain = 0
KFLS 080930Z 32001KT 01/M02 A304 RMK A01 T00111022  RH  079%=      5-min Rain = 0
KFLS 080935Z 33001KT 01/M02 A304 RMK A01 T00111022  RH  080%=      5-min Rain = 0
KFLS 080940Z 35002KT 01/M02 A304 RMK A01 T00111020  RH  080%=      5-min Rain = 0
KFLS 080945Z 36002KT 01/M02 A304 RMK A01 T00111019  RH  081%=      5-min Rain = 0
KFLS 080950Z 36003KT 01/M02 A304 RMK A01 T00111019  RH  081%=      5-min Rain = 0
KFLS 080955Z 35003KT 01/M02 A304 RMK A01 T00111020  RH  081%=      5-min Rain = 0
KFLS 081000Z 34003KT 01/M02 A304 RMK A01 T00121020  RH  081%=      5-min Rain = 0
KFLS 081005Z 34003KT 01/M02 A304 RMK A01 T00121020  RH  080%=      5-min Rain = 0
KFLS 081010Z 34003KT 01/M02 A304 RMK A01 T00121019  RH  081%=      5-min Rain = 0
KFLS 081015Z 34003KT 01/M02 A304 RMK A01 T00121018  RH  081%=      5-min Rain = 0
KFLS 081020Z 35003KT 01/M02 A304 RMK A01 T00121019  RH  081%=      5-min Rain = 0
KFLS 081025Z 34003KT 01/M02 A304 RMK A01 T00121018  RH  081%=      5-min Rain = 0
KFLS 081030Z 34003KT 01/M02 A304 RMK A01 T00121022  RH  079%=      5-min Rain = 0
KFLS 081035Z 33003KT 01/M02 A3041 RMK A01 T00131019  RH  080%=      5-min Rain = 0
KFLS 081040Z 33004KT 01/M02 A3041 RMK A01 T00131018  RH  081%=      5-min Rain = 0
KFLS 081045Z 32004KT 01/M01 A3041 RMK A01 T00131014  RH  083%=      5-min Rain = 0
KFLS 081050Z 34004KT 01/M01 A3041 RMK A01 T00141013  RH  084%=      5-min Rain = 0
KFLS 081055Z 34004KT 01/M01 A3041 RMK A01 T00141011  RH  085%=      5-min Rain = 0
KFLS 081100Z 33003KT 01/M01 A304 RMK A01 T00141011  RH  085%=      5-min Rain = 0
KFLS 081105Z 34002KT 01/M01 A304 RMK A01 T00131012  RH  084%=      5-min Rain = 0
KFLS 081110Z 34002KT 01/M01 A304 RMK A01 T00141011  RH  084%=      5-min Rain = 0
KFLS 081115Z 35002KT 01/M01 A304 RMK A01 T00141013  RH  083%=      5-min Rain = 0
KFLS 081120Z 35003KT 01/M02 A304 RMK A01 T00131017  RH  081%=      5-min Rain = 0
KFLS 081125Z 34003KT 01/M02 A304 RMK A01 T00141016  RH  081%=      5-min Rain = 0
KFLS 081130Z 33002KT 01/M02 A3039 RMK A01 T00141015  RH  082%=      5-min Rain = 0
KFLS 081135Z 35002KT 01/M02 A3039 RMK A01 T00141015  RH  082%=      5-min Rain = 0
KFLS 081140Z 01003KT 02/M02 A3039 RMK A01 T00151015  RH  082%=      5-min Rain = 0
KFLS 081145Z 36003KT 02/M01 A3039 RMK A01 T00151014  RH  082%=      5-min Rain = 0
KFLS 081150Z 35003KT 02/M01 A3039 RMK A01 T00151014  RH  082%=      5-min Rain = 0
KFLS 081155Z 34004KT 02/M02 A304 RMK A01 T00151016  RH  080%=      5-min Rain = 0
KFLS 081200Z 34003KT 02/M02 A304 RMK A01 T00161015  RH  081%=      5-min Rain = 0
KFLS 081205Z 34004KT 02/M02 A304 RMK A01 T00151016  RH  080%=      5-min Rain = 0
KFLS 081210Z 36002KT 02/M02 A3039 RMK A01 T00151017  RH  080%=      5-min Rain = 0
KFLS 081215Z 02001KT 02/M02 A3039 RMK A01 T00151015  RH  081%=      5-min Rain = 0
KFLS 081220Z 03001KT 02/M01 A3039 RMK A01 T00151014  RH  082%=      5-min Rain = 0
KFLS 081225Z 02001KT 02/M02 A3039 RMK A01 T00151015  RH  081%=      5-min Rain = 0
KFLS 081230Z 00002KT 02/M01 A3039 RMK A01 T00161014  RH  082%=      5-min Rain = 0
KFLS 081235Z 35002KT 02/M01 A3038 RMK A01 T00161014  RH  081%=      5-min Rain = 0
KFLS 081240Z 34001KT 02/M02 A3038 RMK A01 T00171015  RH  080%=      5-min Rain = 0
KFLS 081245Z 31000KT 02/M01 A3038 RMK A01 T00171012  RH  082%=      5-min Rain = 0
KFLS 081250Z 31000KT 02/M01 A3038 RMK A01 T00171014  RH  081%=      5-min Rain = 0
KFLS 081255Z 31000KT 02/M01 A3038 RMK A01 T00181010  RH  082%=      5-min Rain = 0
KFLS 081300Z 18000KT 02/M01 A3038 RMK A01 T00181011  RH  082%=      5-min Rain = 0
KFLS 081305Z 17000KT 02/M01 A3038 RMK A01 T00171013  RH  081%=      5-min Rain = 0
KFLS 081310Z 02001KT 02/M01 A3038 RMK A01 T00171013  RH  082%=      5-min Rain = 0
KFLS 081315Z 01001KT 02/M01 A3039 RMK A01 T00171013  RH  081%=      5-min Rain = 0
KFLS 081320Z 36001KT 02/M01 A3039 RMK A01 T00181013  RH  081%=      5-min Rain = 0
KFLS 081325Z 33000KT 02/M01 A3039 RMK A01 T00181014  RH  080%=      5-min Rain = 0
KFLS 081330Z 10000KT 02/M01 A3039 RMK A01 T00181012  RH  081%=      5-min Rain = 0
KFLS 081335Z 08001KT 02/M01 A3039 RMK A01 T00181010  RH  082%=      5-min Rain = 0
KFLS 081340Z 02001KT 02/M01 A3039 RMK A01 T00181012  RH  081%=      5-min Rain = 0
KFLS 081345Z 03001KT 02/M01 A3039 RMK A01 T00191011  RH  082%=      5-min Rain = 0
KFLS 081350Z 03001KT 02/M01 A3039 RMK A01 T00201009  RH  082%=      5-min Rain = 0
KFLS 081355Z 01000KT 02/M01 A3039 RMK A01 T00201010  RH  081%=      5-min Rain = 0
KFLS 081400Z 00000KT 02/M01 A304 RMK A01 T00201013  RH  080%=      5-min Rain = 0
KFLS 081405Z 35002KT 02/M01 A304 RMK A01 T00211011  RH  080%=      5-min Rain = 0
KFLS 081410Z 35001KT 02/M01 A304 RMK A01 T00221011  RH  080%=      5-min Rain = 0
KFLS 081415Z 29000KT 02/M01 A304 RMK A01 T00221012  RH  079%=      5-min Rain = 0
KFLS 081420Z 29001KT 02/M01 A304 RMK A01 T00231010  RH  079%=      5-min Rain = 0
KFLS 081425Z 31002KT 02/M01 A3041 RMK A01 T00241010  RH  079%=      5-min Rain = 0
KFLS 081430Z 29002KT 02/M01 A3041 RMK A01 T00241010  RH  079%=      5-min Rain = 0
KFLS 081435Z 33002KT 03/M01 A3041 RMK A01 T00251010  RH  079%=      5-min Rain = 0
KFLS 081440Z 33002KT 03/M01 A3042 RMK A01 T00251009  RH  079%=      5-min Rain = 0
KFLS 081445Z 32002KT 03/M01 A3041 RMK A01 T00261008  RH  079%=      5-min Rain = 0
KFLS 081450Z 32002KT 03/M01 A3042 RMK A01 T00261008  RH  079%=      5-min Rain = 0
KFLS 081455Z 30003KT 03/M01 A3042 RMK A01 T00271007  RH  079%=      5-min Rain = 0
KFLS 081500Z 30002KT 03/M01 A3042 RMK A01 T00281006  RH  079%=      5-min Rain = 0
KFLS 081505Z 28002KT 03/M01 A3042 RMK A01 T00301005  RH  079%=      5-min Rain = 0
KFLS 081510Z 29002KT 03/M01 A3041 RMK A01 T00301006  RH  078%=      5-min Rain = 0
KFLS 081515Z 24003KT 03/M00 A3041 RMK A01 T00311003  RH  079%=      5-min Rain = 0
KFLS 081520Z 27003KT 03/M01 A3041 RMK A01 T00311005  RH  078%=      5-min Rain = 0
KFLS 081525Z 28002KT 03/M00 A3042 RMK A01 T00311004  RH  078%=      5-min Rain = 0
KFLS 081530Z 29002KT 03/M01 A3042 RMK A01 T00311005  RH  078%=      5-min Rain = 0
KFLS 081535Z 33002KT 03/M00 A3042 RMK A01 T00321004  RH  078%=      5-min Rain = 0
KFLS 081540Z 36001KT 03/M00 A3042 RMK A01 T00331001  RH  079%=      5-min Rain = 0
KFLS 081545Z 27001KT 03/M00 A3042 RMK A01 T00341002  RH  078%=      5-min Rain = 0
KFLS 081550Z 24001KT 04/M00 A3041 RMK A01 T00351001  RH  078%=      5-min Rain = 0
KFLS 081555Z 32001KT 04/M00 A3041 RMK A01 T00361002  RH  077%=      5-min Rain = 0
KFLS 081600Z 34000KT 04/00 A3041 RMK A01 T003600-0  RH  078%=      5-min Rain = 0
KFLS 081605Z 20002KT 04/00 A3041 RMK A01 T00370001  RH  078%=      5-min Rain = 0
KFLS 081610Z 22002KT 04/00 A3041 RMK A01 T00380002  RH  079%=      5-min Rain = 0
KFLS 081615Z 22003KT 04/00 A304 RMK A01 T00400003  RH  078%=      5-min Rain = 0
KFLS 081620Z 21004KT 04/00 A304 RMK A01 T00410004  RH  077%=      5-min Rain = 0
KFLS 081625Z 18004KT 04/01 A304 RMK A01 T00440006  RH  077%=      5-min Rain = 0
KFLS 081630Z 19004KT 05/01 A304 RMK A01 T00460008  RH  077%=      5-min Rain = 0
KFLS 081635Z 19005KT 05/01 A304 RMK A01 T00460006  RH  076%=      5-min Rain = 0
KFLS 081640Z 20005KT 05/01 A304 RMK A01 T00460009  RH  077%=      5-min Rain = 0
KFLS 081645Z 22003KT 05/01 A304 RMK A01 T00480008  RH  076%=      5-min Rain = 0
KFLS 081650Z 21004KT 05/01 A304 RMK A01 T00480009  RH  076%=      5-min Rain = 0
KFLS 081655Z 22004KT 05/01 A3039 RMK A01 T00500010  RH  076%=      5-min Rain = 0
KFLS 081700Z 19004KT 05/01 A3039 RMK A01 T00530012  RH  076%=      5-min Rain = 0
KFLS 081705Z 20005KT 05/01 A3039 RMK A01 T00520010  RH  075%=      5-min Rain = 0
KFLS 081710Z 19004KT 05/01 A3039 RMK A01 T00540012  RH  075%=      5-min Rain = 0
KFLS 081715Z 20006KT 06/01 A3038 RMK A01 T00550013  RH  075%=      5-min Rain = 0
KFLS 081720Z 21006KT 06/02 A3038 RMK A01 T00600018  RH  075%=      5-min Rain = 0
KFLS 081725Z 21007KT 06/02 A3038 RMK A01 T00600019  RH  076%=      5-min Rain = 0
KFLS 081730Z 21007KT 06/02 A3037 RMK A01 T00610020  RH  076%=      5-min Rain = 0
KFLS 081735Z 21007KT 06/02 A3037 RMK A01 T00640023  RH  076%=      5-min Rain = 0
KFLS 081740Z 22007KT 07/03 A3037 RMK A01 T00670026  RH  076%=      5-min Rain = 0
KFLS 081745Z 21009KT 07/03 A3037 RMK A01 T00680026  RH  076%=      5-min Rain = 0
KFLS 081750Z 21009KT 07/03 A3036 RMK A01 T00680028  RH  077%=      5-min Rain = 0
KFLS 081755Z 21007KT 07/03 A3036 RMK A01 T00680029  RH  077%=      5-min Rain = 0
KFLS 081800Z 23009KT 07/03 A3036 RMK A01 T00700032  RH  078%=      5-min Rain = 0
KFLS 081805Z 22007KT 07/03 A3036 RMK A01 T00720034  RH  078%=      5-min Rain = 0
KFLS 081810Z 22007KT 08/04 A3036 RMK A01 T00750036  RH  077%=      5-min Rain = 0
KFLS 081815Z 22008KT 07/04 A3036 RMK A01 T00730035  RH  078%=      5-min Rain = 0
KFLS 081820Z 22007KT 07/04 A3035 RMK A01 T00740036  RH  078%=      5-min Rain = 0
KFLS 081825Z 21007KT 08/04 A3035 RMK A01 T00750037  RH  078%=      5-min Rain = 0
KFLS 081830Z 21007KT 08/04 A3035 RMK A01 T00770038  RH  077%=      5-min Rain = 0
KFLS 081835Z 21008KT 08/04 A3034 RMK A01 T00780039  RH  078%=      5-min Rain = 0
KFLS 081840Z 23008KT 08/04 A3034 RMK A01 T00800040  RH  077%=      5-min Rain = 0
KFLS 081845Z 22010KT 08/04 A3034 RMK A01 T00800040  RH  077%=      5-min Rain = 0
KFLS 081850Z 21008KT 08/04 A3033 RMK A01 T00830043  RH  077%=      5-min Rain = 0
KFLS 081855Z 23009KT 09/04 A3033 RMK A01 T00860044  RH  076%=      5-min Rain = 0
KFLS 081900Z 23009KT 09/05 A3033 RMK A01 T00860045  RH  076%=      5-min Rain = 0
KFLS 081905Z 22009KT 09/04 A3032 RMK A01 T00860044  RH  076%=      5-min Rain = 0
KFLS 081910Z 23008KT 09/05 A3033 RMK A01 T00860045  RH  077%=      5-min Rain = 0
KFLS 081915Z 24007KT 09/05 A3032 RMK A01 T00870047  RH  077%=      5-min Rain = 0
KFLS 081920Z 24008KT 09/05 A3032 RMK A01 T00870048  RH  077%=      5-min Rain = 0
KFLS 081925Z 23009KT 09/05 A3032 RMK A01 T00890050  RH  078%=      5-min Rain = 0
KFLS 081930Z 23008KT 09/05 A3032 RMK A01 T00920052  RH  077%=      5-min Rain = 0
KFLS 081935Z 23009KT 09/05 A3032 RMK A01 T00920052  RH  077%=      5-min Rain = 0
KFLS 081940Z 23009KT 09/05 A3031 RMK A01 T00940053  RH  077%=      5-min Rain = 0
KFLS 081945Z 22008KT 10/05 A3031 RMK A01 T00950054  RH  077%=      5-min Rain = 0
KFLS 081950Z 22009KT 10/06 A3031 RMK A01 T00960055  RH  077%=      5-min Rain = 0
KFLS 081955Z 22009KT 10/06 A303 RMK A01 T00960055  RH  077%=      5-min Rain = 0
KFLS 082000Z 23009KT 10/06 A3031 RMK A01 T00970055  RH  077%=      5-min Rain = 0
KFLS 082005Z 24009KT 10/06 A303 RMK A01 T00990057  RH  076%=      5-min Rain = 0
KFLS 082010Z 23009KT 10/06 A303 RMK A01 T00990058  RH  076%=      5-min Rain = 0
KFLS 082015Z 24009KT 10/06 A303 RMK A01 T00990058  RH  077%=      5-min Rain = 0
KFLS 082020Z 24009KT 10/06 A303 RMK A01 T00990058  RH  077%=      5-min Rain = 0
KFLS 082025Z 24009KT 10/06 A303 RMK A01 T01010059  RH  076%=      5-min Rain = 0
KFLS 082030Z 23009KT 10/06 A303 RMK A01 T01020060  RH  076%=      5-min Rain = 0
KFLS 082035Z 24008KT 10/06 A303 RMK A01 T01030060  RH  076%=      5-min Rain = 0
KFLS 082040Z 23009KT 10/06 A303 RMK A01 T01040061  RH  076%=      5-min Rain = 0
KFLS 082045Z 24007KT 11/06 A3029 RMK A01 T01060062  RH  075%=      5-min Rain = 0
KFLS 082050Z 23007KT 11/06 A3029 RMK A01 T01050062  RH  076%=      5-min Rain = 0
KFLS 082055Z 25007KT 10/06 A3029 RMK A01 T01040062  RH  076%=      5-min Rain = 0
KFLS 082100Z 24006KT 11/06 A3029 RMK A01 T01050062  RH  076%=      5-min Rain = 0
KFLS 082105Z 24008KT 11/06 A3028 RMK A01 T01060062  RH  076%=      5-min Rain = 0
KFLS 082110Z 24007KT 11/06 A3028 RMK A01 T01080063  RH  075%=      5-min Rain = 0
KFLS 082115Z 24007KT 11/06 A3028 RMK A01 T01080064  RH  075%=      5-min Rain = 0
KFLS 082120Z 23006KT 11/07 A3028 RMK A01 T01110065  RH  074%=      5-min Rain = 0
KFLS 082125Z 22007KT 11/06 A3028 RMK A01 T01080064  RH  075%=      5-min Rain = 0
KFLS 082130Z 23007KT 11/07 A3028 RMK A01 T01100066  RH  075%=      5-min Rain = 0
KFLS 082135Z 22008KT 11/07 A3028 RMK A01 T01090065  RH  076%=      5-min Rain = 0
KFLS 082140Z 23006KT 11/07 A3028 RMK A01 T01100067  RH  076%=      5-min Rain = 0
KFLS 082145Z 23006KT 11/07 A3028 RMK A01 T01110067  RH  075%=      5-min Rain = 0
KFLS 082150Z 22007KT 11/07 A3028 RMK A01 T01080067  RH  076%=      5-min Rain = 0
KFLS 082155Z 24007KT 11/07 A3027 RMK A01 T01100068  RH  076%=      5-min Rain = 0
KFLS 082200Z 23008KT 11/07 A3027 RMK A01 T01090068  RH  077%=      5-min Rain = 0
KFLS 082205Z 23008KT 11/07 A3027 RMK A01 T01100069  RH  077%=      5-min Rain = 0
KFLS 082210Z 23008KT 11/07 A3027 RMK A01 T01100069  RH  077%=      5-min Rain = 0
KFLS 082215Z 24008KT 11/07 A3027 RMK A01 T01100070  RH  077%=      5-min Rain = 0
KFLS 082220Z 23008KT 11/07 A3027 RMK A01 T01090070  RH  078%=      5-min Rain = 0
KFLS 082225Z 23008KT 11/07 A3027 RMK A01 T01090070  RH  078%=      5-min Rain = 0
KFLS 082230Z 22008KT 11/07 A3027 RMK A01 T01090070  RH  078%=      5-min Rain = 0
KFLS 082235Z 23007KT 11/07 A3027 RMK A01 T01090070  RH  078%=      5-min Rain = 0
KFLS 082240Z 22008KT 11/07 A3027 RMK A01 T01080071  RH  079%=      5-min Rain = 0
KFLS 082245Z 22007KT 11/07 A3027 RMK A01 T01080071  RH  079%=      5-min Rain = 0
KFLS 082250Z 22007KT 11/07 A3027 RMK A01 T01090072  RH  079%=      5-min Rain = 0
KFLS 082255Z 22008G13KT 11/07 A3027 RMK A01 T01090072  RH  079%=      5-min Rain = 0
KFLS 082300Z 22007KT 11/07 A3027 RMK A01 T01080072  RH  080%=      5-min Rain = 0
KFLS 082305Z 22007KT 11/07 A3027 RMK A01 T01080072  RH  080%=      5-min Rain = 0
KFLS 082310Z 24009KT 11/07 A3027 RMK A01 T01080072  RH  080%=      5-min Rain = 0
KFLS 082315Z 24010KT 11/07 A3027 RMK A01 T01080073  RH  080%=      5-min Rain = 0
KFLS 082320Z 24009KT 11/07 A3027 RMK A01 T01080073  RH  080%=      5-min Rain = 0
KFLS 082325Z 24012KT 11/07 A3027 RMK A01 T01070073  RH  081%=      5-min Rain = 0
KFLS 082330Z 24012KT 11/07 A3027 RMK A01 T01060072  RH  081%=      5-min Rain = 0
KFLS 082335Z 25011KT 11/07 A3027 RMK A01 T01050072  RH  081%=      5-min Rain = 0
KFLS 082340Z 25011KT 11/07 A3027 RMK A01 T01050071  RH  081%=      5-min Rain = 0
KFLS 082345Z 24012KT 11/07 A3027 RMK A01 T01050071  RH  081%=      5-min Rain = 0
KFLS 082350Z 24011KT 11/07 A3027 RMK A01 T01050072  RH  081%=      5-min Rain = 0
KFLS 082355Z 25011KT 11/07 A3027 RMK A01 T01050072  RH  081%=      5-min Rain = 0
KFLS 090000Z 25011G17KT 11/07 A3027 RMK A01 T01050072  RH  081%=      5-min Rain = 0
KFLS 090005Z 25010KT 11/07 A3027 RMK A01 T01050072  RH  081%=      5-min Rain = 0
KFLS 090010Z 25010KT 11/07 A3027 RMK A01 T01050073  RH  081%=      5-min Rain = 0
KFLS 090015Z 25009KT 11/07 A3027 RMK A01 T01050073  RH  082%=      5-min Rain = 0
KFLS 090020Z 24011KT 11/07 A3027 RMK A01 T01050072  RH  081%=      5-min Rain = 0
KFLS 090025Z 24011KT 11/07 A3027 RMK A01 T01050072  RH  081%=      5-min Rain = 0
KFLS 090030Z 24009KT 11/07 A3027 RMK A01 T01050072  RH  081%=      5-min Rain = 0
KFLS 090035Z 23007KT 10/07 A3027 RMK A01 T01040073  RH  083%=      5-min Rain = 0
KFLS 090040Z 23008KT 10/07 A3027 RMK A01 T01020073  RH  083%=      5-min Rain = 0
KFLS 090045Z 23010KT 10/07 A3027 RMK A01 T01020072  RH  083%=      5-min Rain = 0
KFLS 090050Z 23009KT 10/07 A3027 RMK A01 T01010071  RH  083%=      5-min Rain = 0
KFLS 090055Z 23007KT 10/07 A3027 RMK A01 T00970069  RH  084%=      5-min Rain = 0
KFLS 090100Z 23006KT 09/07 A3027 RMK A01 T00930068  RH  086%=      5-min Rain = 0
KFLS 090105Z 23005KT 09/07 A3028 RMK A01 T00900066  RH  086%=      5-min Rain = 0
KFLS 090110Z 23005KT 09/07 A3028 RMK A01 T00860065  RH  088%=      5-min Rain = 0
KFLS 090115Z 23005KT 08/06 A3028 RMK A01 T00830063  RH  088%=      5-min Rain = 0
KFLS 090120Z 22005KT 08/06 A3028 RMK A01 T00800062  RH  089%=      5-min Rain = 0
KFLS 090125Z 22005KT 08/06 A3028 RMK A01 T00810063  RH  090%=      5-min Rain = 0
KFLS 090130Z 22005KT 08/06 A3028 RMK A01 T00810064  RH  090%=      5-min Rain = 0
KFLS 090135Z 22006KT 08/06 A3027 RMK A01 T00790062  RH  090%=      5-min Rain = 0
KFLS 090140Z 22006KT 08/06 A3027 RMK A01 T00800064  RH  091%=      5-min Rain = 0
KFLS 090145Z 22006KT 08/06 A3028 RMK A01 T00780062  RH  091%=      5-min Rain = 0
KFLS 090150Z 21005KT 08/06 A3028 RMK A01 T00760060  RH  091%=      5-min Rain = 0
KFLS 090155Z 21005KT 07/05 A3028 RMK A01 T00670051  RH  091%=      5-min Rain = 0
KFLS 090200Z 20005KT 07/05 A3028 RMK A01 T00650052  RH  093%=      5-min Rain = 0
KFLS 090205Z 20006KT 06/05 A3028 RMK A01 T00640053  RH  094%=      5-min Rain = 0
KFLS 090210Z 20006KT 06/05 A3028 RMK A01 T00630053  RH  095%=      5-min Rain = 0
KFLS 090215Z 20006KT 07/06 A3028 RMK A01 T00660057  RH  095%=      5-min Rain = 0
KFLS 090220Z 20006KT 07/06 A3028 RMK A01 T00660057  RH  095%=      5-min Rain = 0
KFLS 090225Z 20006KT 06/06 A3028 RMK A01 T00640055  RH  095%=      5-min Rain = 0
KFLS 090230Z 20006KT 06/06 A3028 RMK A01 T00630055  RH  096%=      5-min Rain = 0
KFLS 090235Z 20006KT 06/05 A3028 RMK A01 T00600051  RH  096%=      5-min Rain = 0
KFLS 090240Z 21006KT 06/05 A3028 RMK A01 T00600052  RH  096%=      5-min Rain = 0
KFLS 090245Z 21005KT 06/05 A3028 RMK A01 T00620054  RH  096%=      5-min Rain = 0
KFLS 090250Z 21005KT 06/06 A3028 RMK A01 T00640056  RH  096%=      5-min Rain = 0
KFLS 090255Z 21005KT 06/06 A3028 RMK A01 T00640056  RH  096%=      5-min Rain = 0
KFLS 090300Z 21004KT 06/05 A3028 RMK A01 T00600051  RH  096%=      5-min Rain = 0
KFLS 090305Z 21005KT 06/05 A3028 RMK A01 T00620054  RH  096%=      5-min Rain = 0
KFLS 090310Z 20006KT 06/05 A3028 RMK A01 T00570048  RH  096%=      5-min Rain = 0
KFLS 090315Z 20007KT 06/05 A3028 RMK A01 T00550047  RH  096%=      5-min Rain = 0
KFLS 090320Z 20007KT 06/05 A3028 RMK A01 T00590051  RH  096%=      5-min Rain = 0
KFLS 090325Z 21007KT 06/05 A3028 RMK A01 T00590053  RH  097%=      5-min Rain = 0
KFLS 090330Z 20007KT 06/05 A3028 RMK A01 T00610054  RH  097%=      5-min Rain = 0
KFLS 090335Z 20008KT 06/05 A3028 RMK A01 T00610054  RH  097%=      5-min Rain = 0
KFLS 090340Z 21008KT 06/06 A3028 RMK A01 T00620056  RH  097%=      5-min Rain = 0
KFLS 090345Z 21008KT 06/06 A3028 RMK A01 T00620056  RH  097%=      5-min Rain = 0
KFLS 090350Z 21008KT 07/06 A3028 RMK A01 T00650058  RH  097%=      5-min Rain = 0
KFLS 090355Z 22007KT 06/06 A3028 RMK A01 T00640058  RH  097%=      5-min Rain = 0
KFLS 090400Z 22007KT 06/06 A3028 RMK A01 T00640058  RH  097%=      5-min Rain = 0
KFLS 090405Z 22007KT 06/06 A3028 RMK A01 T00630056  RH  097%=      5-min Rain = 0
KFLS 090410Z 22006KT 06/06 A3028 RMK A01 T00620055  RH  097%=      5-min Rain = 0
KFLS 090415Z 22006KT 06/05 A3028 RMK A01 T00590052  RH  096%=      5-min Rain = 0
KFLS 090420Z 22007KT 06/05 A3028 RMK A01 T00570050  RH  097%=      5-min Rain = 0
KFLS 090425Z 22007KT 06/05 A3028 RMK A01 T00550048  RH  097%=      5-min Rain = 0
KFLS 090430Z 22006KT 05/05 A3028 RMK A01 T00540047  RH  097%=      5-min Rain = 0
KFLS 090435Z 22006KT 05/05 A3028 RMK A01 T00530047  RH  097%=      5-min Rain = 0
KFLS 090440Z 23006KT 05/05 A3028 RMK A01 T00520046  RH  097%=      5-min Rain = 0
KFLS 090445Z 24006KT 05/05 A3028 RMK A01 T00530047  RH  097%=      5-min Rain = 0
KFLS 090450Z 23007KT 05/04 A3028 RMK A01 T00500044  RH  097%=      5-min Rain = 0
KFLS 090455Z 23007KT 05/05 A3028 RMK A01 T00510045  RH  097%=      5-min Rain = 0
KFLS 090500Z 23007KT 05/05 A3028 RMK A01 T00520047  RH  098%=      5-min Rain = 0
KFLS 090505Z 23008KT 05/05 A3028 RMK A01 T00530048  RH  098%=      5-min Rain = 0
KFLS 090510Z 23008KT 05/05 A3028 RMK A01 T00530048  RH  098%=      5-min Rain = 0
KFLS 090515Z 23008KT 06/05 A3028 RMK A01 T00560051  RH  098%=      5-min Rain = 0
KFLS 090520Z 23009KT 06/05 A3028 RMK A01 T00580053  RH  098%=      5-min Rain = 0
KFLS 090525Z 23009KT 06/05 A3028 RMK A01 T00590054  RH  098%=      5-min Rain = 0
KFLS 090530Z 23009KT 06/05 A3027 RMK A01 T00600054  RH  098%=      5-min Rain = 0
KFLS 090535Z 23008KT 06/05 A3027 RMK A01 T00600054  RH  097%=      5-min Rain = 0
KFLS 090540Z 23008KT 06/05 A3027 RMK A01 T00570051  RH  097%=      5-min Rain = 0
KFLS 090545Z 24007KT 05/05 A3027 RMK A01 T00530047  RH  097%=      5-min Rain = 0
KFLS 090550Z 24007KT 05/04 A3027 RMK A01 T00490043  RH  097%=      5-min Rain = 0
KFLS 090555Z 25007KT 05/04 A3027 RMK A01 T00470041  RH  097%=      5-min Rain = 0

Page generated in 0.0197 seconds.